Time;durP1;ratioP1;P1;durP2;ratioP2;P2;SDS_P1;SDS_P2;PMS_P1;PMS_P2;Temp;Humidity;BMP_temperature;BMP_pressure;BME280_temperature;BME280_humidity;BME280_pressure;Samples;Min_cycle;Max_cycle;Signal;HPM_P1;HPM_P2
2023/10/16 00:02:16;;;;;;;6.30;5.07;;;6.10;54.90;;;;;;5015689;28;20512;-75
2023/10/16 00:04:46;;;;;;;5.93;4.78;;;6.10;55.00;;;;;;5016070;28;20049;-74
2023/10/16 00:07:27;;;;;;;6.97;4.32;;;6.00;55.40;;;;;;5012489;28;20528;-75
2023/10/16 00:09:56;;;;;;;5.90;4.70;;;6.00;54.90;;;;;;5017741;28;20084;-76
2023/10/16 00:12:23;;;;;;;6.80;4.28;;;6.00;55.00;;;;;;5012620;28;20033;-75
2023/10/16 00:14:50;;;;;;;6.82;4.75;;;6.00;55.00;;;;;;5020451;28;20029;-76
2023/10/16 00:17:16;;;;;;;5.55;4.45;;;6.00;55.00;;;;;;5019023;28;20045;-76
2023/10/16 00:19:44;;;;;;;6.80;5.50;;;6.00;55.10;;;;;;5018053;28;20041;-75
2023/10/16 00:22:16;;;;;;;5.63;4.85;;;6.00;55.10;;;;;;5014383;28;20038;-76
2023/10/16 00:24:46;;;;;;;6.40;4.90;;;6.00;55.20;;;;;;5012229;28;20521;-76
2023/10/16 00:27:15;;;;;;;6.82;4.53;;;6.00;55.20;;;;;;5001768;28;20041;-75
2023/10/16 00:29:43;;;;;;;7.32;5.00;;;6.00;55.20;;;;;;5015595;28;20040;-75
2023/10/16 00:32:12;;;;;;;5.18;4.35;;;5.90;55.10;;;;;;5011765;28;20068;-74
2023/10/16 00:34:39;;;;;;;6.85;4.68;;;5.90;55.10;;;;;;5001168;28;20112;-75
2023/10/16 00:37:06;;;;;;;7.35;5.00;;;5.90;55.20;;;;;;5015745;28;20060;-76
2023/10/16 00:39:33;;;;;;;5.20;4.57;;;5.90;55.30;;;;;;5016521;28;20140;-75
2023/10/16 00:41:59;;;;;;;6.53;4.60;;;5.90;55.30;;;;;;5014979;28;20056;-74
2023/10/16 00:44:33;;;;;;;6.97;5.22;;;5.90;55.40;;;;;;5013368;28;20124;-74
2023/10/16 00:47:09;;;;;;;4.32;3.85;;;5.90;55.40;;;;;;5023569;28;20041;-75
2023/10/16 00:49:35;;;;;;;8.18;4.93;;;5.90;55.50;;;;;;5017614;28;20060;-75
2023/10/16 00:52:04;;;;;;;5.70;4.70;;;5.90;55.50;;;;;;5010956;28;20029;-74
2023/10/16 00:54:33;;;;;;;7.72;5.28;;;5.90;55.60;;;;;;5026359;28;20155;-74
2023/10/16 00:57:00;;;;;;;5.47;4.72;;;5.90;55.60;;;;;;5013278;28;20037;-75
2023/10/16 00:59:28;;;;;;;7.35;4.72;;;5.90;55.70;;;;;;5029546;28;20040;-75
2023/10/16 01:04:55;;;;;;;5.40;4.50;;;5.80;55.50;;;;;;5040815;28;20240;-75
2023/10/16 01:07:23;;;;;;;6.72;4.63;;;5.90;55.70;;;;;;5021574;28;20033;-75
2023/10/16 01:09:50;;;;;;;8.30;4.72;;;5.80;56.10;;;;;;5007485;28;20038;-75
2023/10/16 01:12:20;;;;;;;7.30;4.20;;;5.90;55.80;;;;;;5014783;28;20071;-76
2023/10/16 01:14:46;;;;;;;8.18;5.13;;;5.90;55.80;;;;;;5006380;28;20092;-75
2023/10/16 01:17:12;;;;;;;6.82;5.20;;;5.80;55.70;;;;;;5044992;28;20692;-75
2023/10/16 01:19:43;;;;;;;6.68;4.78;;;5.80;55.80;;;;;;5028203;28;20034;-75
2023/10/16 01:22:11;;;;;;;6.70;4.82;;;5.80;55.80;;;;;;5017079;28;20582;-75
2023/10/16 01:24:43;;;;;;;5.30;4.53;;;5.80;55.80;;;;;;5000344;28;20531;-75
2023/10/16 01:27:14;;;;;;;6.63;5.10;;;5.70;55.60;;;;;;5004099;28;20036;-74
2023/10/16 01:29:41;;;;;;;6.00;4.68;;;5.80;55.90;;;;;;5016327;28;20116;-75
2023/10/16 01:32:07;;;;;;;5.55;4.40;;;5.70;55.70;;;;;;5029006;28;20132;-74
2023/10/16 01:34:34;;;;;;;9.57;5.60;;;5.70;55.80;;;;;;5006828;28;20088;-73
2023/10/16 01:37:09;;;;;;;8.10;4.40;;;5.70;55.90;;;;;;5026909;28;20047;-76
2023/10/16 01:39:48;;;;;;;8.75;4.78;;;5.70;56.00;;;;;;5045421;28;20635;-74
2023/10/16 01:42:15;;;;;;;6.72;4.32;;;5.70;56.00;;;;;;5004148;28;20029;-74
2023/10/16 01:44:45;;;;;;;6.28;5.07;;;5.70;56.10;;;;;;5007701;28;20041;-76
2023/10/16 01:47:15;;;;;;;6.57;5.07;;;5.70;56.00;;;;;;5014770;28;20503;-74
2023/10/16 01:49:48;;;;;;;6.20;4.80;;;5.60;55.90;;;;;;5019071;28;20314;-75
2023/10/16 01:52:14;;;;;;;6.25;4.72;;;5.60;55.90;;;;;;5019078;28;20034;-74
2023/10/16 01:54:45;;;;;;;6.13;4.88;;;5.60;56.00;;;;;;5016967;28;20034;-75
2023/10/16 01:57:12;;;;;;;6.82;5.35;;;5.70;56.20;;;;;;5017622;28;20037;-74
2023/10/16 01:59:42;;;;;;;7.85;5.72;;;5.60;56.10;;;;;;5014275;28;20042;-75
2023/10/16 02:02:09;;;;;;;7.80;5.25;;;5.60;56.10;;;;;;5040000;28;20038;-74
2023/10/16 02:04:40;;;;;;;6.82;5.03;;;5.60;56.20;;;;;;5014734;28;20327;-74
2023/10/16 02:07:08;;;;;;;8.43;5.53;;;5.60;56.20;;;;;;5016322;28;20072;-75
2023/10/16 02:09:38;;;;;;;6.22;5.32;;;5.60;56.20;;;;;;5021383;28;20415;-74
2023/10/16 02:12:16;;;;;;;8.30;5.13;;;5.60;56.20;;;;;;5020952;28;20116;-75
2023/10/16 02:14:44;;;;;;;6.88;4.60;;;5.60;56.30;;;;;;5017839;28;20069;-74
2023/10/16 02:17:21;;;;;;;8.20;5.68;;;5.60;56.30;;;;;;5003435;28;20890;-74
2023/10/16 02:19:47;;;;;;;7.85;5.40;;;5.60;56.30;;;;;;5020523;28;20037;-75
2023/10/16 02:22:16;;;;;;;5.50;4.43;;;5.60;56.40;;;;;;5022800;28;20064;-74
2023/10/16 02:24:44;;;;;;;5.60;4.72;;;5.50;56.20;;;;;;5018529;28;20049;-75
2023/10/16 02:27:14;;;;;;;7.80;5.45;;;5.50;56.20;;;;;;5021926;28;20164;-75
2023/10/16 02:29:45;;;;;;;7.90;5.65;;;5.50;56.30;;;;;;5018748;28;20049;-75
2023/10/16 02:32:15;;;;;;;7.38;5.25;;;5.50;56.30;;;;;;5022597;28;20033;-74
2023/10/16 02:34:41;;;;;;;7.00;5.35;;;5.50;56.40;;;;;;5022578;28;20037;-74
2023/10/16 02:37:10;;;;;;;7.43;4.65;;;5.50;56.40;;;;;;5014440;28;20056;-76
2023/10/16 02:39:41;;;;;;;5.32;4.80;;;5.50;56.50;;;;;;5020115;28;20395;-75
2023/10/16 02:42:12;;;;;;;6.80;5.57;;;5.50;57.10;;;;;;5019941;28;20157;-75
2023/10/16 02:44:39;;;;;;;7.63;6.28;;;5.40;56.40;;;;;;5012035;28;20310;-75
2023/10/16 02:47:12;;;;;;;7.53;4.95;;;5.50;56.60;;;;;;5009329;28;20116;-75
2023/10/16 02:49:57;;;;;;;7.65;5.78;;;5.40;56.60;;;;;;5015409;28;20034;-75
2023/10/16 02:52:24;;;;;;;7.32;4.93;;;5.40;56.60;;;;;;5014154;28;20026;-75
2023/10/16 02:54:50;;;;;;;7.25;4.95;;;5.40;57.20;;;;;;5012367;28;20120;-76
2023/10/16 02:57:16;;;;;;;8.75;5.28;;;5.30;56.50;;;;;;5015048;28;20117;-76
2023/10/16 02:59:43;;;;;;;7.38;5.55;;;5.30;56.50;;;;;;5012884;28;20857;-76
2023/10/16 03:02:22;;;;;;;6.70;5.20;;;5.30;56.60;;;;;;5010762;28;20037;-75
2023/10/16 03:04:51;;;;;;;5.57;4.65;;;5.30;56.70;;;;;;5020475;28;20049;-77
2023/10/16 03:07:20;;;;;;;6.25;5.13;;;5.30;56.70;;;;;;5010790;28;20036;-76
2023/10/16 03:09:49;;;;;;;6.68;4.80;;;5.30;56.80;;;;;;5018985;28;20499;-74
2023/10/16 03:12:19;;;;;;;6.25;5.22;;;5.30;56.80;;;;;;5023206;28;20124;-75
2023/10/16 03:14:45;;;;;;;6.60;5.05;;;5.30;56.80;;;;;;5020159;28;20034;-75
2023/10/16 03:18:00;;;;;;;7.40;5.30;;;5.30;56.80;;;;;;5018022;28;20028;-75
2023/10/16 03:20:16;;;;;;;7.50;4.75;;;5.30;56.90;;;;;;5017399;28;20733;-74
2023/10/16 03:22:50;;;;;;;6.22;5.20;;;5.30;56.90;;;;;;5021479;28;20033;-74
2023/10/16 03:28:26;;;;;;;8.20;5.32;;;5.30;57.00;;;;;;5075736;28;20455;-75
2023/10/16 03:30:52;;;;;;;6.35;4.80;;;5.30;57.00;;;;;;5037976;28;20082;-75
2023/10/16 03:33:19;;;;;;;7.88;5.68;;;5.30;57.00;;;;;;5039343;28;20063;-76
2023/10/16 03:35:47;;;;;;;7.72;5.70;;;5.30;57.10;;;;;;5018352;28;20030;-74
2023/10/16 03:38:27;;;;;;;6.95;4.97;;;5.20;56.90;;;;;;5019866;28;20292;-75
2023/10/16 03:40:55;;;;;;;8.77;6.00;;;5.30;57.20;;;;;;5018304;28;20086;-75
2023/10/16 03:43:22;;;;;;;5.47;4.68;;;5.20;57.00;;;;;;5010016;28;20022;-75
2023/10/16 03:45:49;;;;;;;7.13;5.25;;;5.20;57.10;;;;;;5011465;28;20034;-75
2023/10/16 03:48:17;;;;;;;7.35;5.47;;;5.20;57.10;;;;;;5017395;28;20495;-75
2023/10/16 03:50:43;;;;;;;8.70;5.72;;;5.20;57.20;;;;;;5011252;28;20547;-75
2023/10/16 03:53:13;;;;;;;5.72;4.75;;;5.30;57.40;;;;;;5017506;28;20538;-74
2023/10/16 03:55:49;;;;;;;7.28;5.28;;;5.30;57.40;;;;;;5010112;28;20033;-74
2023/10/16 03:58:16;;;;;;;6.43;5.75;;;5.30;57.50;;;;;;5018290;28;20499;-75
2023/10/16 04:00:57;;;;;;;5.72;4.80;;;5.20;57.20;;;;;;5014109;28;20520;-75
2023/10/16 04:03:26;;;;;;;8.38;5.25;;;5.20;57.30;;;;;;5014863;28;20242;-74
2023/10/16 04:05:53;;;;;;;6.75;4.63;;;5.20;57.30;;;;;;5015547;28;20308;-75
2023/10/16 04:08:25;;;;;;;8.02;4.93;;;5.20;57.40;;;;;;5021493;28;20137;-75
2023/10/16 04:10:56;;;;;;;6.15;4.32;;;5.20;57.40;;;;;;5019767;28;20513;-75
2023/10/16 04:13:31;;;;;;;7.97;5.05;;;5.20;57.40;;;;;;5018546;28;20175;-75
2023/10/16 04:16:11;;;;;;;6.57;4.32;;;5.20;57.50;;;;;;5001428;28;20033;-74
2023/10/16 04:18:39;;;;;;;7.50;5.32;;;5.20;57.50;;;;;;5017747;28;20029;-75
2023/10/16 04:58:38;;;;;;;5.65;3.75;;;5.20;57.90;;;;;;5010747;28;20022;-76
2023/10/16 05:09:53;;;;;;;5.25;4.20;;;5.20;58.00;;;;;;5011862;28;20083;-74
2023/10/16 05:17:58;;;;;;;4.43;3.97;;;5.30;58.20;;;;;;5017219;28;20041;-74
2023/10/16 06:14:57;;;;;;;3.28;3.00;;;5.50;59.60;;;;;;5013265;28;20037;-75
2023/10/16 06:17:23;;;;;;;6.18;3.58;;;5.40;58.80;;;;;;5019318;28;20061;-76
2023/10/16 06:19:51;;;;;;;4.32;2.80;;;5.40;58.90;;;;;;5015702;28;20136;-75
2023/10/16 06:22:17;;;;;;;5.07;3.33;;;5.40;58.90;;;;;;5015906;28;20038;-75
2023/10/16 06:24:47;;;;;;;7.85;3.60;;;5.40;59.00;;;;;;5011069;28;20056;-76
2023/10/16 06:27:19;;;;;;;5.15;2.83;;;5.40;59.00;;;;;;5006445;28;20048;-75
2023/10/16 06:29:53;;;;;;;5.53;3.17;;;5.40;59.00;;;;;;5015712;28;20060;-75
2023/10/16 06:32:25;;;;;;;5.38;3.05;;;5.40;58.90;;;;;;5010118;28;20479;-76
2023/10/16 06:34:58;;;;;;;6.15;3.30;;;5.40;58.90;;;;;;5021293;28;20497;-75
2023/10/16 06:37:24;;;;;;;5.40;3.30;;;5.50;59.10;;;;;;5007932;28;20477;-75
2023/10/16 06:39:54;;;;;;;5.32;3.25;;;5.40;58.90;;;;;;5009757;28;20068;-75
2023/10/16 06:42:21;;;;;;;5.93;3.33;;;5.40;58.90;;;;;;5011183;28;20505;-75
2023/10/16 06:44:53;;;;;;;4.65;2.83;;;5.50;59.10;;;;;;5012573;28;20048;-75
2023/10/16 06:47:23;;;;;;;4.20;2.90;;;5.50;59.10;;;;;;5013127;28;20631;-75
2023/10/16 06:49:50;;;;;;;3.70;2.50;;;5.50;59.10;;;;;;5015789;28;20068;-76
2023/10/16 06:52:19;;;;;;;5.82;3.15;;;5.50;59.10;;;;;;5015366;28;20432;-76
2023/10/16 06:54:45;;;;;;;4.82;3.10;;;5.50;59.10;;;;;;5014908;28;20279;-75
2023/10/16 06:57:12;;;;;;;6.30;3.90;;;5.50;59.10;;;;;;5011016;28;20029;-77
2023/10/16 06:59:50;;;;;;;5.22;3.70;;;5.50;59.00;;;;;;5011517;28;20400;-76
2023/10/16 07:02:19;;;;;;;7.00;3.95;;;5.50;59.10;;;;;;5009283;28;20022;-77
2023/10/16 07:04:46;;;;;;;4.07;3.28;;;5.50;59.00;;;;;;5009792;28;20042;-77
2023/10/16 07:07:16;;;;;;;7.88;3.22;;;5.60;59.20;;;;;;5011281;28;20037;-76
2023/10/16 07:09:47;;;;;;;7.30;3.47;;;5.60;59.20;;;;;;5013200;28;20040;-76
2023/10/16 07:12:21;;;;;;;5.75;3.55;;;5.60;59.20;;;;;;5012428;28;20039;-76
2023/10/16 07:14:57;;;;;;;5.15;3.33;;;5.60;59.20;;;;;;5010449;28;20370;-77
2023/10/16 07:17:29;;;;;;;5.05;2.88;;;5.70;59.30;;;;;;5010061;28;20033;-77
2023/10/16 07:19:59;;;;;;;5.43;3.00;;;5.70;59.20;;;;;;5010421;28;20132;-77
2023/10/16 07:22:32;;;;;;;4.28;2.70;;;5.80;59.30;;;;;;5008751;28;20434;-75
2023/10/16 07:27:47;;;;;;;6.47;3.33;;;5.80;59.20;;;;;;5013451;28;20034;-74
2023/10/16 07:30:23;;;;;;;7.78;3.45;;;5.90;59.30;;;;;;5012210;28;20049;-74
2023/10/16 07:32:50;;;;;;;5.55;3.38;;;6.00;59.60;;;;;;5017249;28;20468;-76
2023/10/16 07:35:21;;;;;;;5.55;2.80;;;6.00;59.30;;;;;;5019714;28;20751;-76
2023/10/16 07:37:48;;;;;;;5.97;3.13;;;6.10;59.40;;;;;;5017569;28;20068;-76
2023/10/16 07:40:16;;;;;;;6.82;3.10;;;6.10;59.30;;;;;;5019928;28;20753;-76
2023/10/16 07:42:41;;;;;;;8.85;3.90;;;6.20;59.40;;;;;;5011971;28;20136;-76
2023/10/16 07:45:08;;;;;;;5.20;2.72;;;6.30;59.50;;;;;;5010623;28;20038;-75
2023/10/16 07:47:34;;;;;;;4.07;3.13;;;6.30;59.40;;;;;;5016831;28;20061;-76
2023/10/16 07:50:04;;;;;;;4.30;2.70;;;6.40;59.50;;;;;;5014827;28;20224;-76
2023/10/16 07:52:33;;;;;;;6.10;3.03;;;6.50;59.60;;;;;;5001324;28;20029;-76
2023/10/16 07:55:02;;;;;;;4.28;3.08;;;6.60;59.70;;;;;;5017960;28;20069;-76
2023/10/16 07:57:28;;;;;;;3.97;3.22;;;6.60;59.50;;;;;;5015836;28;20110;-76
2023/10/16 07:59:55;;;;;;;5.60;3.58;;;6.70;59.60;;;;;;5016867;28;20064;-77
2023/10/16 08:02:21;;;;;;;8.13;3.28;;;6.80;59.70;;;;;;5013603;28;20037;-77
2023/10/16 08:04:56;;;;;;;7.13;3.45;;;6.80;59.60;;;;;;5024305;28;20068;-76
2023/10/16 08:07:46;;;;;;;4.88;3.05;;;6.90;59.70;;;;;;5013680;28;20044;-76
2023/10/16 08:13:13;;;;;;;5.63;3.50;;;7.00;59.70;;;;;;5016009;28;20117;-76
2023/10/16 08:15:49;;;;;;;6.07;3.20;;;7.10;59.70;;;;;;5018185;28;20041;-75
2023/10/16 08:18:18;;;;;;;6.57;2.65;;;7.20;59.80;;;;;;5025277;28;20234;-76
2023/10/16 08:21:00;;;;;;;5.63;3.08;;;7.20;59.70;;;;;;5017581;28;20176;-76
2023/10/16 08:23:34;;;;;;;5.60;2.80;;;7.30;59.80;;;;;;5017457;28;20342;-74
2023/10/16 08:26:14;;;;;;;3.17;2.67;;;7.40;59.80;;;;;;5012805;28;20507;-76
2023/10/16 08:28:45;;;;;;;5.93;2.75;;;7.40;59.70;;;;;;5021472;28;20029;-75
2023/10/16 08:31:22;;;;;;;6.20;3.35;;;7.50;59.80;;;;;;4995756;28;20512;-76
2023/10/16 08:33:57;;;;;;;3.90;2.78;;;7.60;59.80;;;;;;5010786;28;20056;-77
2023/10/16 08:36:24;;;;;;;4.00;2.78;;;7.70;59.80;;;;;;5009974;28;20041;-75
2023/10/16 08:38:55;;;;;;;4.50;2.50;;;7.80;59.80;;;;;;5018881;28;20057;-75
2023/10/16 08:41:42;;;;;;;5.65;3.05;;;7.80;59.60;;;;;;5013265;28;20064;-76
2023/10/16 08:44:15;;;;;;;4.30;2.63;;;7.90;59.60;;;;;;5011408;28;20359;-77
2023/10/16 08:46:44;;;;;;;6.10;2.60;;;8.00;59.60;;;;;;5017467;28;20471;-76
2023/10/16 08:49:11;;;;;;;4.30;2.65;;;8.10;59.60;;;;;;5015140;28;20426;-78
2023/10/16 08:51:38;;;;;;;4.47;2.47;;;8.20;59.60;;;;;;5014141;28;20114;-76
2023/10/16 08:54:05;;;;;;;5.30;2.85;;;8.20;59.40;;;;;;5011698;28;20053;-76
2023/10/16 08:56:32;;;;;;;5.32;3.35;;;8.30;59.50;;;;;;5008767;28;20225;-77
2023/10/16 08:59:01;;;;;;;3.67;2.25;;;8.40;59.50;;;;;;5014590;28;20045;-76
2023/10/16 09:01:28;;;;;;;4.78;2.92;;;8.40;59.40;;;;;;5012254;28;20032;-76
2023/10/16 09:04:05;;;;;;;3.67;2.50;;;8.50;59.40;;;;;;5012421;28;20041;-75
2023/10/16 09:06:36;;;;;;;6.45;3.10;;;8.50;59.20;;;;;;5012290;28;20490;-77
2023/10/16 09:09:13;;;;;;;5.00;2.80;;;8.60;59.20;;;;;;5008429;28;20066;-77
2023/10/16 09:11:43;;;;;;;4.38;2.85;;;8.70;59.40;;;;;;5011241;28;20129;-76
2023/10/16 09:14:18;;;;;;;6.18;2.90;;;8.70;59.20;;;;;;5018249;28;20041;-76
2023/10/16 09:16:48;;;;;;;4.18;2.53;;;8.80;59.30;;;;;;5046235;28;20033;-76
2023/10/16 09:19:15;;;;;;;5.22;2.63;;;8.80;59.10;;;;;;5004866;28;20069;-76
2023/10/16 09:21:44;;;;;;;3.50;2.75;;;8.80;59.00;;;;;;5023527;28;20037;-76
2023/10/16 09:24:14;;;;;;;4.00;2.35;;;8.90;59.10;;;;;;5021722;28;20068;-78
2023/10/16 09:26:47;;;;;;;4.22;2.53;;;8.90;59.00;;;;;;5013127;28;20047;-77
2023/10/16 09:29:19;;;;;;;6.07;3.00;;;8.90;58.90;;;;;;5013003;28;20038;-77
2023/10/16 09:31:47;;;;;;;3.85;2.95;;;9.00;59.00;;;;;;5011552;28;20045;-76
2023/10/16 09:34:17;;;;;;;6.68;2.83;;;9.00;58.90;;;;;;5020445;28;20147;-76
2023/10/16 09:37:15;;;;;;;6.95;2.95;;;9.10;59.00;;;;;;5013919;28;20308;-76
2023/10/16 09:39:37;;;;;;;6.07;2.92;;;9.20;59.00;;;;;;5018296;28;20429;-77
2023/10/16 09:42:12;;;;;;;4.47;2.45;;;9.30;59.10;;;;;;5004943;28;20049;-79
2023/10/16 09:44:44;;;;;;;5.53;2.28;;;9.30;58.80;;;;;;5008162;28;20275;-78
2023/10/16 09:47:26;;;;;;;6.00;2.55;;;9.50;59.00;;;;;;5019969;28;20348;-77
2023/10/16 09:49:54;;;;;;;3.50;2.40;;;9.60;59.00;;;;;;5020080;28;20032;-78
2023/10/16 09:52:21;;;;;;;5.07;2.70;;;9.70;59.50;;;;;;5016632;28;20467;-77
2023/10/16 09:54:48;;;;;;;5.63;2.70;;;9.80;58.90;;;;;;5023791;28;20052;-78
2023/10/16 09:57:19;;;;;;;4.00;2.42;;;9.90;58.80;;;;;;5022781;28;20296;-78
2023/10/16 09:59:46;;;;;;;4.20;2.70;;;10.00;58.80;;;;;;5020312;28;20346;-77
2023/10/16 10:02:18;;;;;;;5.13;2.35;;;10.00;58.60;;;;;;5008663;28;20042;-77
2023/10/16 10:05:04;;;;;;;6.38;2.60;;;10.20;58.80;;;;;;5027108;28;20398;-76
2023/10/16 10:07:34;;;;;;;4.68;3.13;;;10.20;58.60;;;;;;5014564;28;20088;-78
2023/10/16 10:11:04;;;;;;;3.63;2.35;;;10.30;58.60;;;;;;5016072;28;20295;-77
2023/10/16 10:12:53;;;;;;;5.97;3.75;;;10.40;58.70;;;;;;5014763;28;20022;-78
2023/10/16 10:15:26;;;;;;;5.07;2.10;;;10.40;58.50;;;;;;5015067;28;20040;-78
2023/10/16 10:17:55;;;;;;;6.65;2.80;;;10.50;58.50;;;;;;5008807;28;20045;-78
2023/10/16 10:20:26;;;;;;;5.15;2.70;;;10.60;58.50;;;;;;5025257;28;20041;-76
2023/10/16 10:23:06;;;;;;;6.43;2.70;;;10.70;58.50;;;;;;5006388;28;20038;-79
2023/10/16 10:25:36;;;;;;;5.75;2.88;;;10.70;58.30;;;;;;5020826;28;20503;-78
2023/10/16 10:28:10;;;;;;;4.40;2.33;;;10.80;58.40;;;;;;5011836;28;20036;-77
2023/10/16 10:30:43;;;;;;;5.97;2.13;;;10.90;58.40;;;;;;5011061;28;20046;-77
2023/10/16 10:33:11;;;;;;;5.28;2.47;;;11.00;58.40;;;;;;5012617;28;20026;-77
2023/10/16 10:35:43;;;;;;;6.35;2.42;;;11.10;58.40;;;;;;5022199;28;20078;-77
2023/10/16 10:38:20;;;;;;;4.20;2.58;;;11.20;58.30;;;;;;5019778;28;20336;-77
2023/10/16 10:41:06;;;;;;;3.70;2.47;;;11.30;58.30;;;;;;5008875;28;20561;-78
2023/10/16 10:43:46;;;;;;;3.58;2.35;;;11.40;58.30;;;;;;5001046;28;20037;-78
2023/10/16 10:46:14;;;;;;;4.95;1.90;;;11.50;58.30;;;;;;5015413;28;20037;-78
2023/10/16 10:48:43;;;;;;;4.53;3.10;;;11.50;58.10;;;;;;5020769;28;20116;-77
2023/10/16 10:51:15;;;;;;;6.50;2.30;;;11.60;58.50;;;;;;5004075;28;20040;-77
2023/10/16 10:53:58;;;;;;;3.25;1.95;;;11.70;58.20;;;;;;5013375;28;20460;-76
2023/10/16 10:56:59;;;;;;;;;;;11.80;58.10;;;;;;5018686;28;20036;-77
2023/10/16 10:59:41;;;;;;;6.53;2.17;;;11.90;58.30;;;;;;4997548;28;20439;-76
2023/10/16 11:04:53;;;;;;;4.38;2.47;;;12.10;58.30;;;;;;5019985;28;20194;-76
2023/10/16 11:07:39;;;;;;;3.80;2.10;;;12.10;58.10;;;;;;5015966;28;20104;-76
2023/10/16 11:10:06;;;;;;;4.20;1.88;;;12.20;58.10;;;;;;5014816;28;20062;-77
2023/10/16 11:12:33;;;;;;;5.38;2.28;;;12.30;58.20;;;;;;5013858;28;20366;-77
2023/10/16 11:15:01;;;;;;;3.55;1.90;;;12.40;58.20;;;;;;5008061;28;20041;-76
2023/10/16 11:17:30;;;;;;;5.05;2.13;;;12.40;58.00;;;;;;5021701;28;20109;-77
2023/10/16 11:19:57;;;;;;;3.47;1.98;;;12.50;58.00;;;;;;5016515;28;20507;-76
2023/10/16 11:22:31;;;;;;;3.95;1.67;;;12.60;58.10;;;;;;5012958;28;20091;-78
2023/10/16 11:24:58;;;;;;;3.83;1.70;;;12.70;58.10;;;;;;5013722;28;20069;-78
2023/10/16 11:27:23;;;;;;;4.07;1.40;;;12.80;58.00;;;;;;5011245;28;20029;-76
2023/10/16 11:29:52;;;;;;;3.70;1.88;;;12.80;57.70;;;;;;5007295;28;20029;-77
2023/10/16 11:32:25;;;;;;;6.05;2.15;;;12.90;57.70;;;;;;5007124;28;20038;-77
2023/10/16 11:35:12;;;;;;;4.60;1.63;;;13.00;57.70;;;;;;5015810;28;20046;-77
2023/10/16 11:37:39;;;;;;;4.55;2.25;;;13.10;57.70;;;;;;5015115;28;20120;-76
2023/10/16 11:40:18;;;;;;;3.10;1.67;;;13.20;57.70;;;;;;5014900;28;20049;-77
2023/10/16 11:42:45;;;;;;;2.80;1.50;;;13.20;57.40;;;;;;5012097;28;20041;-77
2023/10/16 11:45:18;;;;;;;4.43;1.67;;;13.30;57.30;;;;;;5005555;28;20037;-77
2023/10/16 11:47:54;;;;;;;3.85;1.95;;;13.40;57.40;;;;;;5012600;28;20043;-78
2023/10/16 11:50:38;;;;;;;5.13;2.85;;;13.50;57.30;;;;;;5013987;28;20320;-78
2023/10/16 11:53:07;;;;;;;3.13;2.00;;;13.60;57.30;;;;;;5021099;28;20151;-78
2023/10/16 11:55:36;;;;;;;4.53;2.03;;;13.60;57.10;;;;;;5012869;28;20040;-78
2023/10/16 11:58:06;;;;;;;4.30;1.55;;;13.70;57.10;;;;;;4997754;28;20584;-78
2023/10/16 12:00:42;;;;;;;2.53;1.52;;;13.80;57.00;;;;;;5014790;28;20055;-78
2023/10/16 12:03:14;;;;;;;;;;;13.80;56.90;;;;;;5009127;28;20040;-78
2023/10/16 12:05:43;;;;;;;5.00;2.22;;;13.90;56.90;;;;;;5020433;28;20036;-77
2023/10/16 12:08:10;;;;;;;3.65;1.77;;;14.00;57.10;;;;;;5006511;28;20561;-77
2023/10/16 12:10:37;;;;;;;5.22;2.33;;;14.00;56.90;;;;;;5012515;28;20033;-77
2023/10/16 12:13:04;;;;;;;8.07;1.88;;;14.10;57.00;;;;;;5010125;28;20570;-77
2023/10/16 12:15:31;;;;;;;4.28;2.13;;;14.10;56.70;;;;;;5016581;28;20481;-78
2023/10/16 12:18:00;;;;;;;3.38;1.60;;;14.20;56.70;;;;;;5014335;28;20469;-76
2023/10/16 12:20:27;;;;;;;3.53;1.65;;;14.30;56.60;;;;;;5024143;28;20661;-78
2023/10/16 12:22:58;;;;;;;3.13;1.48;;;14.40;56.60;;;;;;5010781;28;20277;-78
2023/10/16 12:25:24;;;;;;;3.28;1.35;;;14.50;56.50;;;;;;5014450;28;20132;-77
2023/10/16 12:27:53;;;;;;;3.03;1.67;;;14.60;56.50;;;;;;5007795;28;20034;-78
2023/10/16 12:30:20;;;;;;;4.68;1.58;;;14.60;56.30;;;;;;5019733;28;20036;-79
2023/10/16 12:32:46;;;;;;;3.38;1.35;;;14.80;56.50;;;;;;5012450;28;20040;-77
2023/10/16 12:35:13;;;;;;;2.60;1.30;;;14.80;56.30;;;;;;5016371;28;20040;-77
2023/10/16 12:37:40;;;;;;;3.28;1.67;;;14.90;56.20;;;;;;5012916;28;20029;-77
2023/10/16 12:42:53;;;;;;;4.75;1.45;;;15.00;55.90;;;;;;5016044;28;20036;-78
2023/10/16 12:45:23;;;;;;;3.45;1.23;;;15.10;55.90;;;;;;5014482;28;20037;-77
2023/10/16 12:47:51;;;;;;;5.43;1.60;;;15.20;55.80;;;;;;5019758;28;20482;-78
2023/10/16 12:50:24;;;;;;;4.60;1.63;;;15.20;55.80;;;;;;5027349;28;20515;-77
2023/10/16 12:52:51;;;;;;;2.00;1.40;;;15.30;55.80;;;;;;5060724;28;20029;-77
2023/10/16 12:55:19;;;;;;;3.33;1.58;;;15.30;55.70;;;;;;5019321;28;20042;-77
2023/10/16 12:57:48;;;;;;;4.30;1.45;;;15.30;55.50;;;;;;5020444;28;20045;-77
2023/10/16 13:00:16;;;;;;;3.78;1.30;;;15.30;55.50;;;;;;5018505;28;20370;-76
2023/10/16 13:02:45;;;;;;;6.00;1.45;;;15.30;55.40;;;;;;5017002;28;20033;-78
2023/10/16 13:05:24;;;;;;;5.45;1.48;;;15.30;55.30;;;;;;5020436;28;20547;-77
2023/10/16 13:07:51;;;;;;;3.42;1.55;;;15.30;55.20;;;;;;5020178;28;20044;-78
2023/10/16 13:10:20;;;;;;;3.58;1.60;;;15.40;55.40;;;;;;5017743;28;20374;-78
2023/10/16 13:12:47;;;;;;;2.58;1.27;;;15.40;55.30;;;;;;5017437;28;20048;-75
2023/10/16 13:15:24;;;;;;;5.25;1.63;;;15.50;55.40;;;;;;5011701;28;20041;-76
2023/10/16 13:17:52;;;;;;;3.10;1.17;;;15.50;55.30;;;;;;5017005;28;20033;-76
2023/10/16 13:20:18;;;;;;;2.67;1.20;;;15.50;55.20;;;;;;5022981;28;20378;-77
2023/10/16 13:22:49;;;;;;;2.13;1.27;;;15.50;55.10;;;;;;5021901;28;20068;-77
2023/10/16 13:25:18;;;;;;;2.65;1.40;;;15.50;55.00;;;;;;5019324;28;20037;-78
2023/10/16 13:27:45;;;;;;;2.60;1.42;;;15.50;54.90;;;;;;5014972;28;20025;-77
2023/10/16 13:30:11;;;;;;;3.90;1.48;;;15.50;54.90;;;;;;5006359;28;20033;-79
2023/10/16 13:32:41;;;;;;;5.05;1.70;;;15.50;54.80;;;;;;5010982;28;20026;-78
2023/10/16 13:35:13;;;;;;;3.50;1.05;;;15.60;54.90;;;;;;5020784;28;20044;-78
2023/10/16 13:37:46;;;;;;;4.10;1.30;;;15.60;54.90;;;;;;5017856;28;20038;-76
2023/10/16 13:40:20;;;;;;;3.40;1.05;;;15.60;54.70;;;;;;5024212;28;20041;-76
2023/10/16 13:42:50;;;;;;;3.13;1.48;;;15.50;54.60;;;;;;5023846;28;20029;-75
2023/10/16 13:45:18;;;;;;;4.88;1.30;;;15.60;54.70;;;;;;5027366;28;20053;-76
2023/10/16 13:47:45;;;;;;;3.40;1.80;;;15.60;54.70;;;;;;5017528;28;20045;-77
2023/10/16 13:50:16;;;;;;;3.53;1.48;;;15.60;54.50;;;;;;5025697;28;20121;-77
2023/10/16 13:52:54;;;;;;;3.10;1.35;;;15.60;54.40;;;;;;5018743;28;20579;-78
2023/10/16 13:55:24;;;;;;;4.22;1.30;;;15.60;54.40;;;;;;5019691;28;20130;-78
2023/10/16 13:57:54;;;;;;;4.60;1.50;;;15.60;54.30;;;;;;5018868;28;20041;-78
2023/10/16 14:00:30;;;;;;;2.13;1.35;;;15.70;54.40;;;;;;4999552;28;20045;-77
2023/10/16 14:02:57;;;;;;;2.75;1.50;;;15.70;54.30;;;;;;4998470;28;20045;-77
2023/10/16 14:05:24;;;;;;;2.65;1.40;;;15.70;54.30;;;;;;5019652;28;20129;-78
2023/10/16 14:07:53;;;;;;;3.00;1.00;;;15.70;54.20;;;;;;5013175;28;20563;-78
2023/10/16 14:10:21;;;;;;;6.00;1.60;;;15.80;54.30;;;;;;5016899;28;20962;-77
2023/10/16 14:12:58;;;;;;;3.35;1.70;;;15.80;54.20;;;;;;5013023;28;20477;-77
2023/10/16 14:15:26;;;;;;;3.05;1.20;;;15.80;54.10;;;;;;5010276;28;20091;-78
2023/10/16 14:17:57;;;;;;;3.00;1.40;;;15.90;54.90;;;;;;5014313;28;20044;-77
2023/10/16 14:20:36;;;;;;;4.47;1.80;;;15.90;54.20;;;;;;5024386;28;20034;-77
2023/10/16 14:23:03;;;;;;;3.78;1.65;;;15.90;54.20;;;;;;5011652;28;20038;-77
2023/10/16 14:25:32;;;;;;;3.25;1.60;;;15.90;54.00;;;;;;5027030;28;20045;-77
2023/10/16 14:28:11;;;;;;;2.30;1.50;;;15.90;54.00;;;;;;5017876;28;20501;-77
2023/10/16 14:30:39;;;;;;;3.78;1.58;;;15.90;54.00;;;;;;5028113;28;20045;-78
2023/10/16 14:33:06;;;;;;;3.28;1.52;;;15.90;54.00;;;;;;5012959;28;20037;-78
2023/10/16 14:35:37;;;;;;;3.78;2.00;;;15.90;54.00;;;;;;5016445;28;20675;-77
2023/10/16 14:38:05;;;;;;;4.88;1.35;;;15.90;53.90;;;;;;5015700;28;20539;-77
2023/10/16 14:40:42;;;;;;;1.50;1.02;;;15.90;54.00;;;;;;5027612;28;20539;-77
2023/10/16 14:43:08;;;;;;;2.40;1.40;;;15.90;54.00;;;;;;5011237;28;20547;-76
2023/10/16 14:45:36;;;;;;;4.30;1.80;;;15.90;54.10;;;;;;5020960;28;20349;-77
2023/10/16 14:48:05;;;;;;;8.23;1.92;;;15.80;53.80;;;;;;5016271;28;20045;-77
2023/10/16 14:50:33;;;;;;;6.72;2.28;;;15.80;53.80;;;;;;5018334;28;20592;-77
2023/10/16 14:53:00;;;;;;;5.07;2.25;;;15.80;53.90;;;;;;5021063;28;20033;-77
2023/10/16 14:55:27;;;;;;;3.38;2.35;;;15.70;53.70;;;;;;5016615;28;20096;-75
2023/10/16 14:57:57;;;;;;;2.72;1.90;;;15.70;53.80;;;;;;5011146;28;20044;-76
2023/10/16 15:00:37;;;;;;;4.35;2.50;;;15.70;53.80;;;;;;5017560;28;20445;-78
2023/10/16 15:03:10;;;;;;;3.60;2.30;;;15.60;53.70;;;;;;5014138;28;20499;-77
2023/10/16 15:05:41;;;;;;;4.82;1.80;;;15.60;53.70;;;;;;5008692;28;20050;-77
2023/10/16 15:08:11;;;;;;;8.40;3.72;;;15.60;53.70;;;;;;5011386;28;20091;-78
2023/10/16 15:10:44;;;;;;;4.38;2.10;;;15.60;53.70;;;;;;5005741;28;20038;-77
2023/10/16 15:13:14;;;;;;;4.38;1.98;;;15.50;53.50;;;;;;5015198;28;20045;-77
2023/10/16 15:15:41;;;;;;;5.82;2.28;;;15.50;53.70;;;;;;5024435;28;20025;-77